Terminal Aerodrome Forecast
Issued by NWS

Home | Current Version | Previous Version | Text Only | Print | Product List | Glossary On
Versions: 1 2 3 4 5 6 7 8 9 10 11 12 13 14 15 16 17 18 19 20 21 22 23 24 25 26 27
000
FTAK31 PAFA 242334
TAFAQT
TAF
PAQT 242334Z 2500/2524 09010KT 6SM -SHSN BR SCT025 BKN035 OVC050
     FM250400 12010KT 4SM -SHSN BR BKN015 OVC025
     FM250600 15010KT 6SM -SHSN BR BKN015 OVC025
     FM251800 13008KT P6SM BKN025 OVC050=

USA.gov is the U.S. government's official web portal to all federal, state and local government web resources and services.